createdAt,value
2023-02-17T00:00:20.766Z,65.40
2023-02-17T00:05:51.093Z,62.00
2023-02-17T00:08:24.758Z,60.00
2023-02-17T00:11:02.407Z,63.40
2023-02-17T00:13:35.871Z,62.90
2023-02-17T00:16:14.705Z,64.10
2023-02-17T00:18:48.518Z,58.50
2023-02-17T00:21:24.084Z,62.60
2023-02-17T00:23:58.801Z,65.10
2023-02-17T00:26:42.849Z,63.30
2023-02-17T00:29:17.009Z,63.60
2023-02-17T00:31:51.452Z,60.80
2023-02-17T00:34:25.400Z,61.00
2023-02-17T00:36:59.163Z,63.20
2023-02-17T00:39:35.462Z,60.70
2023-02-17T00:42:09.416Z,61.60
2023-02-17T00:44:52.662Z,60.30
2023-02-17T00:47:27.561Z,61.80
2023-02-17T00:50:02.086Z,59.40
2023-02-17T00:52:56.249Z,65.60
2023-02-17T00:55:29.836Z,59.90
2023-02-17T00:58:03.496Z,62.20
2023-02-17T01:00:37.401Z,61.70
2023-02-17T01:03:14.096Z,65.40
2023-02-17T01:05:51.548Z,62.00
2023-02-17T01:08:25.743Z,61.70
2023-02-17T01:10:59.552Z,60.40
2023-02-17T01:13:33.449Z,59.30
2023-02-17T01:16:08.308Z,61.70
2023-02-17T01:18:42.387Z,59.90
2023-02-17T01:21:28.642Z,60.50
2023-02-17T01:24:07.047Z,61.00
2023-02-17T01:26:44.910Z,61.80
2023-02-17T01:29:22.142Z,62.00
2023-02-17T01:32:08.023Z,57.60
2023-02-17T01:34:42.424Z,59.20
2023-02-17T01:37:37.367Z,59.10
2023-02-17T01:40:15.818Z,60.60
2023-02-17T01:42:53.582Z,60.80
2023-02-17T01:45:52.757Z,57.10
2023-02-17T01:51:06.767Z,62.60
2023-02-17T01:53:45.561Z,59.40
2023-02-17T01:56:31.869Z,57.50
2023-02-17T01:59:09.811Z,57.20
2023-02-17T02:01:47.247Z,58.30
2023-02-17T02:04:25.022Z,59.10
2023-02-17T02:06:59.952Z,57.70
2023-02-17T02:09:38.685Z,61.70
2023-02-17T02:12:25.474Z,58.30
2023-02-17T02:15:01.663Z,59.40
2023-02-17T02:17:44.621Z,64.90
2023-02-17T02:20:55.578Z,57.10
2023-02-17T02:23:56.042Z,61.40
2023-02-17T02:27:11.020Z,60.70
2023-02-17T02:30:36.294Z,58.10
2023-02-17T02:33:16.861Z,59.20
2023-02-17T02:36:00.880Z,57.30
2023-02-17T02:39:00.959Z,58.60
2023-02-17T02:41:41.556Z,53.40
2023-02-17T02:44:20.276Z,54.40
2023-02-17T02:47:07.179Z,61.60
2023-02-17T02:49:41.646Z,57.80
2023-02-17T02:52:24.723Z,57.10
2023-02-17T02:55:27.494Z,54.90
2023-02-17T02:58:12.408Z,60.90
2023-02-17T03:00:56.996Z,59.00
2023-02-17T03:04:02.025Z,58.40
2023-02-17T03:06:46.355Z,57.00
2023-02-17T03:09:41.457Z,55.10
2023-02-17T03:12:15.655Z,62.90
2023-02-17T03:14:52.199Z,59.40
2023-02-17T03:17:25.850Z,59.30
2023-02-17T03:19:59.929Z,57.90
2023-02-17T03:22:37.126Z,56.70
2023-02-17T03:25:11.968Z,57.90
2023-02-17T03:27:55.584Z,57.20
2023-02-17T03:30:32.219Z,57.50
2023-02-17T03:33:06.561Z,55.10
2023-02-17T03:35:40.864Z,57.50
2023-02-17T03:38:14.880Z,61.00
2023-02-17T03:40:58.721Z,55.90
2023-02-17T03:43:32.309Z,60.30
2023-02-17T03:46:06.372Z,55.40
2023-02-17T03:48:40.082Z,55.50
2023-02-17T03:51:19.565Z,55.60
2023-02-17T03:53:56.134Z,57.40
2023-02-17T03:56:30.366Z,60.90
2023-02-17T03:59:04.402Z,52.20
2023-02-17T04:01:38.439Z,56.20
2023-02-17T04:04:32.671Z,54.10
2023-02-17T04:07:06.314Z,56.90
2023-02-17T04:09:40.931Z,52.30
2023-02-17T04:12:14.723Z,56.60
2023-02-17T04:14:48.696Z,56.40
2023-02-17T04:17:24.960Z,57.50
2023-02-17T04:19:59.090Z,57.70
2023-02-17T04:22:33.075Z,55.20
2023-02-17T04:25:08.202Z,56.30
2023-02-17T04:27:44.309Z,54.20
2023-02-17T04:30:19.400Z,53.20
2023-02-17T04:32:53.343Z,55.00
2023-02-17T04:35:27.838Z,52.00
2023-02-17T04:38:01.406Z,54.30
2023-02-17T04:40:35.394Z,58.90
2023-02-17T04:43:30.370Z,58.10
2023-02-17T04:46:04.920Z,52.80
2023-02-17T04:48:42.321Z,56.90
2023-02-17T04:51:16.344Z,55.20
2023-02-17T04:53:50.043Z,55.50
2023-02-17T04:56:23.908Z,57.40
2023-02-17T04:59:17.879Z,53.30
2023-02-17T05:01:51.816Z,54.50
2023-02-17T05:04:35.932Z,60.00
2023-02-17T05:07:13.798Z,57.40
2023-02-17T05:09:47.707Z,58.40
2023-02-17T05:12:21.064Z,58.90
2023-02-17T05:15:05.788Z,54.80
2023-02-17T05:17:39.535Z,58.00
2023-02-17T05:20:15.076Z,58.30
2023-02-17T05:22:58.687Z,62.80
2023-02-17T05:25:33.119Z,63.40
2023-02-17T05:28:07.280Z,58.30
2023-02-17T05:31:02.078Z,58.20
2023-02-17T05:33:36.592Z,54.70
2023-02-17T05:36:13.160Z,57.40
2023-02-17T05:38:56.706Z,64.60
2023-02-17T05:41:30.661Z,57.40
2023-02-17T05:44:08.014Z,58.60
2023-02-17T05:46:41.771Z,64.10
2023-02-17T05:49:16.271Z,61.40
2023-02-17T05:51:50.352Z,63.10
2023-02-17T05:54:24.129Z,65.20
2023-02-17T05:56:58.058Z,59.50
2023-02-17T05:59:32.171Z,57.80
2023-02-17T06:02:06.771Z,61.10
2023-02-17T06:04:40.765Z,59.30
2023-02-17T06:07:14.335Z,53.80
2023-02-17T06:09:48.033Z,55.00
2023-02-17T06:12:21.875Z,54.00
2023-02-17T06:14:55.990Z,55.30
2023-02-17T06:17:29.670Z,54.40
2023-02-17T06:20:03.856Z,54.50
2023-02-17T06:22:37.653Z,55.40
2023-02-17T06:25:13.932Z,56.70
2023-02-17T06:27:47.805Z,64.40
2023-02-17T06:30:22.006Z,57.30
2023-02-17T06:32:55.974Z,62.60
2023-02-17T06:35:30.061Z,59.70
2023-02-17T06:38:04.313Z,57.60
2023-02-17T06:40:38.253Z,52.50
2023-02-17T06:43:12.313Z,59.20
2023-02-17T06:45:48.961Z,56.30
2023-02-17T06:48:22.723Z,55.60
2023-02-17T06:50:56.692Z,52.40
2023-02-17T06:53:51.086Z,57.20
2023-02-17T06:56:24.763Z,56.80
2023-02-17T06:58:58.771Z,56.70
2023-02-17T07:01:32.254Z,53.70
2023-02-17T07:04:06.028Z,51.30
2023-02-17T07:06:43.255Z,59.30
2023-02-17T07:09:17.289Z,60.00
2023-02-17T07:11:51.441Z,55.70
2023-02-17T07:14:25.145Z,53.10
2023-02-17T07:17:09.866Z,57.70
2023-02-17T07:19:43.888Z,55.90
2023-02-17T07:22:17.626Z,54.30
2023-02-17T07:24:52.215Z,52.90
2023-02-17T07:27:26.093Z,54.30
2023-02-17T07:30:12.989Z,55.30
2023-02-17T07:32:46.839Z,58.60
2023-02-17T07:35:23.488Z,56.00
2023-02-17T07:37:58.398Z,56.90
2023-02-17T07:40:32.431Z,53.70
2023-02-17T07:43:09.356Z,52.20
2023-02-17T07:45:46.120Z,54.30
2023-02-17T07:48:23.638Z,57.70
2023-02-17T07:50:58.293Z,55.90
2023-02-17T07:53:42.205Z,52.40
2023-02-17T07:56:16.959Z,51.00
2023-02-17T07:59:01.124Z,50.80
2023-02-17T08:01:34.690Z,54.30
2023-02-17T08:04:08.522Z,56.70
2023-02-17T08:06:42.664Z,56.60
2023-02-17T08:09:33.754Z,47.80
2023-02-17T08:12:36.948Z,48.80
2023-02-17T08:15:12.659Z,50.80
2023-02-17T08:20:27.793Z,56.50
2023-02-17T08:23:01.382Z,52.20
2023-02-17T08:25:37.299Z,52.20
2023-02-17T08:28:13.054Z,51.30
2023-02-17T08:30:49.658Z,52.90
2023-02-17T08:33:23.205Z,51.30
2023-02-17T08:35:56.610Z,52.40
2023-02-17T08:38:30.243Z,48.00
2023-02-17T08:41:04.155Z,51.30
2023-02-17T08:43:37.796Z,50.50
2023-02-17T08:46:13.082Z,52.10
2023-02-17T08:48:58.215Z,51.40
2023-02-17T08:51:43.229Z,50.10
2023-02-17T08:54:17.198Z,52.10
2023-02-17T08:57:11.156Z,49.60
2023-02-17T08:59:56.353Z,51.70
2023-02-17T09:02:29.761Z,54.10
2023-02-17T09:05:04.075Z,48.50
2023-02-17T09:07:40.449Z,48.90
2023-02-17T09:10:17.620Z,52.00
2023-02-17T09:12:52.308Z,52.30
2023-02-17T09:15:26.049Z,50.20
2023-02-17T09:17:59.717Z,48.20
2023-02-17T09:20:41.175Z,52.30
2023-02-17T09:23:14.750Z,47.70
2023-02-17T09:26:24.507Z,49.10
2023-02-17T09:28:58.542Z,54.40
2023-02-17T09:31:32.566Z,52.20
2023-02-17T09:34:06.956Z,58.70
2023-02-17T09:36:42.799Z,54.40
2023-02-17T09:39:18.950Z,51.40
2023-02-17T09:41:55.570Z,52.20
2023-02-17T09:44:35.876Z,56.80
2023-02-17T09:47:23.431Z,52.10
2023-02-17T09:50:02.358Z,52.40
2023-02-17T09:52:40.523Z,51.90
2023-02-17T09:55:18.359Z,76.90
2023-02-17T09:57:59.093Z,76.70
2023-02-17T10:00:35.798Z,54.50
2023-02-17T10:03:17.909Z,53.70
2023-02-17T10:06:01.877Z,48.70
2023-02-17T10:08:42.567Z,48.60
2023-02-17T10:11:23.684Z,48.10
2023-02-17T10:14:00.459Z,47.30
2023-02-17T10:16:38.155Z,46.50
2023-02-17T10:19:17.889Z,52.80
2023-02-17T10:21:59.109Z,48.10
2023-02-17T10:24:32.697Z,57.70
2023-02-17T10:27:24.087Z,56.80
2023-02-17T10:30:12.518Z,51.10
2023-02-17T10:33:00.838Z,54.70
2023-02-17T10:35:53.031Z,50.60
2023-02-17T10:38:48.726Z,46.70
2023-02-17T10:41:27.508Z,49.00
2023-02-17T10:44:15.550Z,46.70
2023-02-17T10:49:28.678Z,49.20
2023-02-17T10:52:05.040Z,53.30
2023-02-17T10:54:45.868Z,49.10
2023-02-17T10:57:21.700Z,50.10
2023-02-17T10:59:55.871Z,48.40
2023-02-17T11:02:38.528Z,47.60
2023-02-17T11:05:21.894Z,48.70
2023-02-17T11:07:59.749Z,47.30
2023-02-17T11:10:36.584Z,48.90
2023-02-17T11:13:32.593Z,45.50
2023-02-17T11:16:07.150Z,50.20
2023-02-17T11:18:49.233Z,43.60
2023-02-17T11:21:23.466Z,45.00
2023-02-17T11:24:02.432Z,50.10
2023-02-17T11:29:18.038Z,41.90
2023-02-17T11:32:05.393Z,51.00
2023-02-17T11:34:44.531Z,44.20
2023-02-17T11:37:27.364Z,52.00
2023-02-17T11:40:27.371Z,46.10
2023-02-17T11:43:03.639Z,47.90
2023-02-17T11:45:44.727Z,47.90
2023-02-17T11:48:44.314Z,41.00
2023-02-17T11:51:24.880Z,43.10
2023-02-17T11:54:07.168Z,42.90
2023-02-17T11:56:43.733Z,43.70
2023-02-17T11:59:53.753Z,38.30
2023-02-17T12:02:46.468Z,42.10
2023-02-17T12:05:27.754Z,44.20
2023-02-17T12:08:13.079Z,43.60
2023-02-17T12:11:09.938Z,44.40
2023-02-17T12:13:57.812Z,47.10
2023-02-17T12:16:50.725Z,45.90
2023-02-17T12:19:47.520Z,45.00
2023-02-17T12:22:37.723Z,42.00
2023-02-17T12:25:29.346Z,44.10
2023-02-17T12:28:34.514Z,40.00
2023-02-17T12:31:20.787Z,40.00
2023-02-17T12:34:11.639Z,45.40
2023-02-17T12:36:58.056Z,42.20
2023-02-17T12:39:43.395Z,45.20
2023-02-17T12:42:32.600Z,36.70
2023-02-17T12:45:17.860Z,41.10
2023-02-17T12:47:59.879Z,42.50
2023-02-17T12:50:39.150Z,38.10
2023-02-17T12:53:21.956Z,41.90
2023-02-17T12:55:59.550Z,42.40
2023-02-17T12:58:44.815Z,35.40
2023-02-17T13:01:22.162Z,36.80
2023-02-17T13:03:56.637Z,38.40
2023-02-17T13:06:38.741Z,37.80
2023-02-17T13:09:26.442Z,38.70
2023-02-17T13:12:12.135Z,41.60
2023-02-17T13:14:47.681Z,33.70
2023-02-17T13:17:30.400Z,36.70
2023-02-17T13:23:28.316Z,32.70
2023-02-17T13:26:31.581Z,30.80
2023-02-17T13:29:37.540Z,32.20
2023-02-17T13:32:14.954Z,31.20
2023-02-17T13:35:00.749Z,31.00
2023-02-17T13:37:45.080Z,32.70
2023-02-17T13:40:39.562Z,32.70
2023-02-17T13:43:24.496Z,30.90
2023-02-17T13:46:03.192Z,29.90
2023-02-17T13:48:37.767Z,30.00
2023-02-17T13:51:29.371Z,31.00
2023-02-17T13:54:10.099Z,30.30
2023-02-17T13:56:43.672Z,38.50
2023-02-17T13:59:25.622Z,33.90
2023-02-17T14:02:00.587Z,37.10
2023-02-17T14:04:35.356Z,32.60
2023-02-17T14:07:10.248Z,35.10
2023-02-17T14:09:54.513Z,28.60
2023-02-17T14:12:28.920Z,34.80
2023-02-17T14:15:03.090Z,30.70
2023-02-17T14:17:38.439Z,29.40
2023-02-17T14:20:33.414Z,31.40
2023-02-17T14:23:12.758Z,34.30
2023-02-17T14:25:47.398Z,31.90
2023-02-17T14:28:26.098Z,31.50
2023-02-17T14:31:10.653Z,31.00
2023-02-17T14:33:57.091Z,30.40
2023-02-17T14:36:34.307Z,28.80
2023-02-17T14:39:10.924Z,26.70
2023-02-17T14:41:45.897Z,27.00
2023-02-17T14:44:20.459Z,26.20
2023-02-17T14:46:55.718Z,27.90
2023-02-17T14:49:30.715Z,26.30
2023-02-17T14:52:23.652Z,28.60
2023-02-17T14:55:00.750Z,26.30
2023-02-17T14:57:34.932Z,36.90
2023-02-17T15:00:16.218Z,33.10
2023-02-17T15:02:51.687Z,31.90
2023-02-17T15:05:27.497Z,30.20
2023-02-17T15:08:04.896Z,31.00
2023-02-17T15:10:40.506Z,33.20
2023-02-17T15:13:19.621Z,27.80
2023-02-17T15:15:53.753Z,32.00
2023-02-17T15:18:28.588Z,34.90
2023-02-17T15:21:02.867Z,30.60
2023-02-17T15:23:45.831Z,32.00
2023-02-17T15:26:20.860Z,32.70
2023-02-17T15:28:59.598Z,36.40
2023-02-17T15:31:36.612Z,32.60
2023-02-17T15:34:16.892Z,33.00
2023-02-17T15:36:54.445Z,34.20
2023-02-17T15:39:31.787Z,33.40
2023-02-17T15:42:14.573Z,33.40
2023-02-17T15:44:51.557Z,32.30
2023-02-17T15:47:25.492Z,34.90
2023-02-17T15:50:00.997Z,32.90
2023-02-17T15:52:39.499Z,29.80
2023-02-17T15:57:51.217Z,26.60
2023-02-17T16:00:28.388Z,26.80
2023-02-17T16:03:07.259Z,27.50
2023-02-17T16:05:43.859Z,28.90
2023-02-17T16:08:18.308Z,24.60
2023-02-17T16:10:54.658Z,25.00
2023-02-17T16:13:31.275Z,26.70
2023-02-17T16:16:10.932Z,24.30
2023-02-17T16:18:44.806Z,29.90
2023-02-17T16:21:19.557Z,25.00
2023-02-17T16:23:59.681Z,25.10
2023-02-17T16:26:38.217Z,24.00
2023-02-17T16:29:19.194Z,24.30
2023-02-17T16:31:56.340Z,26.30
2023-02-17T16:34:43.236Z,24.20
2023-02-17T16:37:21.681Z,25.00
2023-02-17T16:42:29.861Z,20.50
2023-02-17T16:45:06.003Z,23.00
2023-02-17T16:47:50.096Z,21.40
2023-02-17T16:50:27.082Z,23.60
2023-02-17T16:53:14.720Z,21.70
2023-02-17T16:55:52.008Z,19.10
2023-02-17T16:58:32.334Z,20.30
2023-02-17T17:01:13.110Z,20.90
2023-02-17T17:03:49.248Z,18.90
2023-02-17T17:06:30.078Z,20.30
2023-02-17T17:09:05.756Z,21.40
2023-02-17T17:11:41.148Z,21.50
2023-02-17T17:14:21.432Z,25.60
2023-02-17T17:17:10.019Z,25.90
2023-02-17T17:19:52.068Z,28.40
2023-02-17T17:22:38.711Z,21.90
2023-02-17T17:25:21.789Z,26.20
2023-02-17T17:27:58.781Z,20.60
2023-02-17T17:30:48.827Z,19.90
2023-02-17T17:33:26.623Z,18.30
2023-02-17T17:36:04.216Z,19.90
2023-02-17T17:38:41.271Z,17.00
2023-02-17T17:41:21.434Z,18.10
2023-02-17T17:43:58.343Z,20.30
2023-02-17T17:46:42.070Z,18.40
2023-02-17T17:49:26.158Z,18.50
2023-02-17T17:52:03.346Z,18.80
2023-02-17T17:54:39.461Z,18.10
2023-02-17T17:57:18.028Z,17.00
2023-02-17T17:59:55.880Z,15.90
2023-02-17T18:02:33.749Z,18.10
2023-02-17T18:05:13.235Z,18.00
2023-02-17T18:07:55.314Z,14.40
2023-02-17T18:10:31.760Z,14.80
2023-02-17T18:13:07.728Z,14.90
2023-02-17T18:15:44.865Z,15.60
2023-02-17T18:18:21.733Z,15.00
2023-02-17T18:20:59.594Z,16.40
2023-02-17T18:23:37.620Z,14.30
2023-02-17T18:26:14.542Z,14.70
2023-02-17T18:28:51.290Z,16.50
2023-02-17T18:31:30.386Z,14.80
2023-02-17T18:34:08.984Z,17.10
2023-02-17T18:36:48.588Z,20.10
2023-02-17T18:39:26.553Z,17.50
2023-02-17T18:42:05.026Z,16.20
2023-02-17T18:44:42.699Z,15.80
2023-02-17T18:47:20.946Z,16.40
2023-02-17T18:50:20.670Z,17.00
2023-02-17T18:52:57.855Z,15.40
2023-02-17T18:55:37.263Z,15.20
2023-02-17T18:58:13.477Z,16.60
2023-02-17T19:00:55.202Z,17.20
2023-02-17T19:03:39.004Z,16.90
2023-02-17T19:06:34.420Z,19.20
2023-02-17T19:09:13.110Z,16.50
2023-02-17T19:11:56.834Z,16.00
2023-02-17T19:14:36.414Z,18.60
2023-02-17T19:17:24.474Z,18.10
2023-02-17T19:20:15.633Z,16.60
2023-02-17T19:22:52.507Z,18.80
2023-02-17T19:25:30.745Z,17.00
2023-02-17T19:28:07.229Z,18.20
2023-02-17T19:30:45.923Z,30.00
2023-02-17T19:33:22.455Z,16.80
2023-02-17T19:36:02.815Z,16.90
2023-02-17T19:38:41.734Z,15.20
2023-02-17T19:41:37.141Z,15.80
2023-02-17T19:44:21.780Z,16.00
2023-02-17T19:47:08.278Z,17.10
2023-02-17T19:49:49.719Z,16.70
2023-02-17T19:52:31.274Z,15.90
2023-02-17T19:55:11.193Z,18.00
2023-02-17T19:57:56.752Z,16.70
2023-02-17T20:00:42.472Z,16.60
2023-02-17T20:03:24.780Z,16.40
2023-02-17T20:06:11.512Z,16.50
2023-02-17T20:08:50.794Z,15.40
2023-02-17T20:11:47.147Z,16.20
2023-02-17T20:14:55.931Z,17.60
2023-02-17T20:17:33.983Z,18.00
2023-02-17T20:20:21.054Z,15.80
2023-02-17T20:22:58.030Z,16.40
2023-02-17T20:25:34.626Z,16.60
2023-02-17T20:28:12.103Z,17.20
2023-02-17T20:30:52.688Z,15.80
2023-02-17T20:33:39.211Z,16.40
2023-02-17T20:36:19.293Z,15.90
2023-02-17T20:38:56.003Z,15.00
2023-02-17T20:41:35.578Z,15.10
2023-02-17T20:44:13.388Z,15.50
2023-02-17T20:46:50.391Z,14.60
2023-02-17T20:49:29.658Z,15.10
2023-02-17T20:52:06.544Z,15.30
2023-02-17T20:54:59.633Z,18.80
2023-02-17T20:57:36.420Z,14.40
2023-02-17T21:00:24.880Z,15.70
2023-02-17T21:03:03.347Z,15.40
2023-02-17T21:05:53.307Z,16.90
2023-02-17T21:08:33.396Z,14.60
2023-02-17T21:11:14.015Z,14.90
2023-02-17T21:13:51.467Z,13.70
2023-02-17T21:16:31.400Z,17.10
2023-02-17T21:19:10.773Z,15.10
2023-02-17T21:21:47.925Z,15.20
2023-02-17T21:24:27.112Z,12.50
2023-02-17T21:27:02.402Z,12.90
2023-02-17T21:29:44.154Z,13.00
2023-02-17T21:32:21.978Z,11.10
2023-02-17T21:34:58.025Z,11.50
2023-02-17T21:37:35.288Z,10.60
2023-02-17T21:40:13.582Z,11.50
2023-02-17T21:43:05.106Z,10.80
2023-02-17T21:45:45.533Z,10.00
2023-02-17T21:48:19.347Z,9.50
2023-02-17T21:51:09.648Z,9.20
2023-02-17T21:53:46.236Z,8.80
2023-02-17T21:56:21.177Z,7.50
2023-02-17T21:58:59.354Z,8.70
2023-02-17T22:01:34.568Z,9.00
2023-02-17T22:04:17.435Z,7.50
2023-02-17T22:06:52.497Z,7.20
2023-02-17T22:09:26.309Z,7.40
2023-02-17T22:11:59.792Z,6.80
2023-02-17T22:14:33.755Z,5.40
2023-02-17T22:17:07.814Z,6.60
2023-02-17T22:19:41.291Z,7.70
2023-02-17T22:22:17.676Z,8.50
2023-02-17T22:24:51.219Z,7.10
2023-02-17T22:27:36.931Z,6.60
2023-02-17T22:30:14.329Z,4.80
2023-02-17T22:32:50.558Z,6.80
2023-02-17T22:35:24.061Z,7.10
2023-02-17T22:38:00.377Z,5.60
2023-02-17T22:40:34.404Z,7.00
2023-02-17T22:43:10.195Z,4.40
2023-02-17T22:45:43.842Z,5.80
2023-02-17T22:48:17.304Z,6.70
2023-02-17T22:50:51.243Z,6.40
2023-02-17T22:53:25.165Z,6.10
2023-02-17T22:56:00.097Z,7.20
2023-02-17T22:58:38.107Z,8.20
2023-02-17T23:01:14.052Z,6.50
2023-02-17T23:03:53.702Z,7.90
2023-02-17T23:06:33.044Z,5.90
2023-02-17T23:09:18.922Z,6.30
2023-02-17T23:11:55.856Z,7.50
2023-02-17T23:14:33.260Z,5.50
2023-02-17T23:17:11.925Z,5.90
2023-02-17T23:19:45.485Z,7.40
2023-02-17T23:22:20.427Z,5.80
2023-02-17T23:24:54.137Z,3.70
2023-02-17T23:27:30.761Z,5.80
2023-02-17T23:30:04.287Z,4.60
2023-02-17T23:32:41.002Z,6.10
2023-02-17T23:35:18.063Z,7.30
2023-02-17T23:37:52.930Z,5.00
2023-02-17T23:40:30.799Z,7.80
2023-02-17T23:43:05.680Z,5.20
2023-02-17T23:45:41.290Z,7.60
2023-02-17T23:48:14.917Z,5.80
2023-02-17T23:50:56.774Z,5.50
2023-02-17T23:53:30.731Z,5.60
2023-02-17T23:56:10.602Z,4.90
2023-02-17T23:58:47.894Z,8.50
